South Pass, Louisiana
Current Conditions -  °F | °C
As of 3:51 PM on Friday 24 Oct 2014 (Local Time) from KBVE Reporting Station
Clear Clear  
Wind Chill: 22°   Ceiling: Unl
Heat Index: 22°   Visibility: 10mi
Dew Point: 12°   Wind: 8mph
Humidity: 53%   Direction: 340°NNW
Pressure: 30.03"   Gusts: NA
Location:  29.2037°N, 89.3875°W
Report Text: KBVE 242051Z AUTO 34007KT 10SM CLR 22/12 A3003 RMK AO2 SLP170 T02220122 56015
Loading
Personal Weather Stations






























Interactive Weather Map
Tropical Storm Tracking
New forecast layout! Learn more

10-Day Weather Forecast

Advertisements
Track Severe Weather on mobile